• Join FlightAware (Why Join?)
  • Login
  • US Flag 
03:05PM EDT


 

Airport Tracker/Info


-or-


 

Live Flight TrackerFlight Track Log ✈ SWA419 ✈ 30-Apr-2013 ✈ KPWM - KBWI

Flight Track Log - Related Links

Times and Time Zones

All times are in EDT time to prevent confusion due to time zone crossing. See the SWA419 flight status page for this flight to view local times or setup timezone preferences in your user account.

Time Position Orientation Groundspeed Altitude Reporting Facility
EDT Latitude Longitude Course Direction KTS MPH feet Rate Location/Type
12:14PM 43.6189 -70.2261 210° Southwest 166 191 3,500  Level Boston Center
12:15PM 43.5739 -70.2706 216° Southwest 153 176 6,600 3,120 Climbing Boston Center
12:16PM 43.5106 -70.3389 218° Southwest 236 272 9,700 2,820 Climbing Boston Center
12:17PM 43.4514 -70.4067 220° Southwest 298 343 12,400 3,420 Climbing Boston Center
12:18PM 43.3697 -70.4978 219° Southwest 335 386 16,600 3,120 Climbing Boston Center
12:19PM 43.1227 -70.7252 210° Southwest  Level FlightAware Approximate
12:19PM 43.3061 -70.5656 218° Southwest 360 414 18,700  Level Boston Center
12:20PM 43.2181 -70.6622 219° Southwest 367 422 21,800 2,880 Climbing Boston Center
12:21PM 43.1236 -70.7475 213° Southwest 390 449 24,500 2,580 Climbing Boston Center
12:22PM 43.0206 -70.8242 209° Southwest 414 476 27,000 2,220 Climbing Boston Center
12:23PM 42.9153 -70.8978 207° Southwest 424 488 29,000 2,280 Climbing Boston Center
12:24PM 42.8056 -70.9686 205° Southwest 430 495 31,600 2,280 Climbing Boston Center
12:25PM 42.6939 -71.0278 201° Southwest 430 495 33,600 1,200 Climbing Boston Center
12:26PM 42.5797 -71.0811 199° South 436 502 34,000 180 Climbing Boston Center
12:27PM 42.4597 -71.1400 200° South 446 513 34,000 -60 Level Boston Center
12:28PM 42.3858 -71.2622 231° Southwest 428 493 33,900 -60 Descending Boston Center
12:29PM 42.3436 -71.4147 250° West 415 478 33,900  Level Boston Center
12:30PM 42.2867 -71.5728 244° Southwest 421 484 33,900  Level Boston Center
12:31PM 42.2481 -71.7081 249° West 427 491 34,000  Climbing Boston Center
12:32PM 42.2031 -71.8572 248° West 432 497 34,000  Level Boston Center
12:33PM 42.1558 -72.0061 247° West 432 497 34,000  Level Boston Center
12:34PM 42.1103 -72.1519 247° West 432 497 34,000  Level Boston Center
12:35PM 42.0647 -72.2975 247° West 437 503 34,000  Level Boston Center
12:36PM 42.0189 -72.4372 246° West 432 497 34,000  Level Boston Center
12:37PM 41.9731 -72.5853 247° West 432 497 34,000  Level Boston Center
12:38PM 41.9186 -72.7164 241° Southwest 420 483 34,000  Level Boston Center
12:39PM 41.8350 -72.8303 225° Southwest 425 489 34,000  Level Boston Center
12:40PM 41.7489 -72.9519 227° Southwest 438 504 34,000  Level Boston Center
12:41PM 41.6650 -73.0653 225° Southwest 438 504 34,000  Level Boston Center
12:42PM 41.5831 -73.1756 225° Southwest 432 497 34,000  Level Boston Center
12:43PM 41.4519 -73.3564 226° Southwest 419 482 34,000  Level New York Center
12:44PM 41.3683 -73.4667 225° Southwest 424 488 34,000  Level New York Center
12:45PM 41.2867 -73.5764 225° Southwest 424 488 34,000  Level New York Center
12:46PM 41.2150 -73.6975 232° Southwest 424 488 34,000  Level New York Center
12:47PM 41.1411 -73.8211 232° Southwest 429 494 34,000  Level New York Center
12:48PM 41.0669 -73.9442 231° Southwest 434 499 34,000 -300 Level New York Center
12:49PM 40.9969 -74.0647 232° Southwest 429 494 33,400 -1,800 Descending New York Center
12:50PM 40.9142 -74.1925 229° Southwest 429 494 30,400 -2,880 Descending New York Center
12:51PM 40.8417 -74.3150 232° Southwest 429 494 27,600 -2,220 Descending New York Center
12:52PM 40.7694 -74.4344 231° Southwest 429 494 26,000 -840 Descending New York Center
12:53PM 40.6989 -74.5511 231° Southwest 424 488 26,000  Level New York Center
12:54PM 40.6286 -74.6675 232° Southwest 424 488 26,000  Level New York Center
12:55PM 40.5561 -74.7808 230° Southwest 419 482 26,000 -60 Level New York Center
12:56PM 40.4792 -74.8911 227° Southwest 419 482 25,900 -480 Descending New York Center
12:57PM 40.4025 -74.9981 227° Southwest 414 476 25,100 -960 Descending New York Center
12:58PM 40.3233 -75.1103 227° Southwest 414 476 24,100 -1,320 Descending New York Center
12:59PM 40.2464 -75.2197 227° Southwest 419 482 22,600 -1,440 Descending New York Center
01:00PM 40.1672 -75.3289 227° Southwest 424 488 21,200 -1,620 Descending New York Center
01:01PM 40.0944 -75.4325 227° Southwest 419 482 19,400 -1,440 Descending New York Center
01:02PM 40.0153 -75.5356 225° Southwest 408 470 18,400 -720 Descending New York Center
01:03PM 39.9508 -75.6289 228° Southwest 398 458 18,000 -240 Descending New York Center
01:04PM 39.8794 -75.7456 231° Southwest 388 447 18,000 -900 Level New York Center
01:05PM 39.8250 -75.8472 235° Southwest 378 435 16,300 -1,740 Descending New York Center
01:08PM 39.6833 -76.1167 236° Southwest 320 368 12,000 -1,440 Descending Potomac TRACON
01:09PM 39.6333 -76.2167 237° Southwest 300 345 11,400 -1,080 Descending Potomac TRACON
01:10PM 39.6000 -76.3000 243° Southwest 295 339 9,900 -1,500 Descending Potomac TRACON
01:11PM 39.5500 -76.4000 237° Southwest 290 334 8,400 -1,500 Descending Potomac TRACON
01:12PM 39.5167 -76.4833 243° Southwest 285 328 7,000 -1,200 Descending Potomac TRACON
01:13PM 39.4833 -76.5667 243° Southwest 276 318 6,000 -540 Descending Potomac TRACON
01:14PM 39.4500 -76.6667 247° West 275 316 6,000  Level Potomac TRACON
01:15PM 39.4167 -76.7500 243° Southwest 271 312 6,000 -540 Level Potomac TRACON
01:16PM 39.3667 -76.8333 232° Southwest 274 315 5,000 -600 Descending Potomac TRACON
01:17PM 39.3333 -76.9167 243° Southwest 269 310 4,900 -540 Descending Potomac TRACON
01:18PM 39.3000 -77.0000 243° Southwest 274 315 4,000 -480 Descending Potomac TRACON
01:19PM 39.2500 -77.0333 207° Southwest 214 246 4,000  Level Potomac TRACON
01:20PM 39.2000 -77.0167 166° South 167 192 4,100 -60 Climbing Potomac TRACON
01:21PM 39.1667 -77.0000 159° South 172 198 3,900 -600 Descending Potomac TRACON
01:22PM 39.1833 -76.9500 67° East 163 188 2,900 -960 Descending Potomac TRACON
01:23PM 39.1833 -76.9000 90° East 158 182 2,000 -420 Descending Potomac TRACON
01:24PM 39.1833 -76.8500 90° East 163 188 2,100 -180 Climbing Potomac TRACON
01:25PM 39.1833 -76.7833 90° East 163 188 1,700 -600 Descending Potomac TRACON
01:26PM 39.1833 -76.7333 90° East 127 146 1,000 -720 Descending Potomac TRACON
01:28PM 39.1754 -76.6683 218° Southwest  Level Estimated
01:35PM 39.1754 -76.6683 270° West  Level Estimated
01:36PM 39.1754 -76.6683 270° West  Level Estimated